createdAt,value
2022-12-22T00:15:11.498Z,935.1
2022-12-22T00:20:26.559Z,935.5
2022-12-22T00:25:41.507Z,935.6
2022-12-22T00:30:53.724Z,936
2022-12-22T00:42:50.274Z,936.3
2022-12-22T00:58:37.003Z,936.1
2022-12-22T01:03:53.900Z,936.1
2022-12-22T01:14:25.838Z,936.1
2022-12-22T01:35:44.487Z,936.1
2022-12-22T01:46:16.978Z,935.9
2022-12-22T01:51:29.391Z,935.5
2022-12-22T01:56:45.387Z,935.2
2022-12-22T02:01:52.697Z,934.3
2022-12-22T02:07:01.803Z,934
2022-12-22T02:22:55.895Z,934
2022-12-22T02:44:12.965Z,933.3
2022-12-22T02:49:27.485Z,933.3
2022-12-22T02:54:39.366Z,932.3
2022-12-22T03:05:12.164Z,932.5
2022-12-22T03:15:46.648Z,932.5
2022-12-22T03:20:57.082Z,931.7
2022-12-22T03:42:12.680Z,932.6
2022-12-22T03:47:24.880Z,933.1
2022-12-22T03:52:36.034Z,933.1
2022-12-22T03:57:49.086Z,934.1
2022-12-22T04:03:02.942Z,934.4
2022-12-22T04:08:13.071Z,934.8
2022-12-22T04:13:25.421Z,935.1
2022-12-22T04:18:38.740Z,935.3
2022-12-22T04:23:49.123Z,935.4
2022-12-22T04:39:44.709Z,935.6
2022-12-22T04:55:45.318Z,935.4
2022-12-22T05:11:34.666Z,935
2022-12-22T05:16:47.615Z,934.8
2022-12-22T05:22:01.034Z,933.9
2022-12-22T05:27:12.806Z,932.8
2022-12-22T05:32:24.548Z,932.1
2022-12-22T05:37:37.817Z,931.4
2022-12-22T05:42:50.765Z,930.7
2022-12-22T05:48:01.477Z,930.2
2022-12-22T05:53:11.938Z,930
2022-12-22T05:58:23.917Z,929.9
2022-12-22T06:03:36.392Z,929.6
2022-12-22T06:14:08.757Z,929.5
2022-12-22T06:19:18.035Z,929.3
2022-12-22T06:29:50.431Z,929
2022-12-22T06:45:46.242Z,928.9
2022-12-22T06:50:57.716Z,929.2
2022-12-22T07:01:29.470Z,929.3
2022-12-22T07:06:38.136Z,929.1
2022-12-22T07:11:49.451Z,928.8
2022-12-22T07:17:02.469Z,928.6
2022-12-22T07:22:16.580Z,928.6
2022-12-22T07:32:50.040Z,928.7
2022-12-22T07:38:02.127Z,928.4
2022-12-22T07:43:14.694Z,928.2
2022-12-22T07:48:26.887Z,928.1
2022-12-22T07:59:00.829Z,927.8
2022-12-22T08:04:13.293Z,928.3
2022-12-22T08:09:25.475Z,927.8
2022-12-22T08:14:36.759Z,927.6
2022-12-22T08:19:45.563Z,927.3
2022-12-22T08:24:56.607Z,927.5
2022-12-22T08:30:07.086Z,927.3
2022-12-22T08:46:02.533Z,927.5
2022-12-22T08:51:13.608Z,927.7
2022-12-22T09:01:48.345Z,927.9
2022-12-22T09:12:20.515Z,927.6
2022-12-22T09:17:31.585Z,927.4
2022-12-22T09:22:45.347Z,927.7
2022-12-22T09:27:53.931Z,927.6
2022-12-22T09:33:05.167Z,928
2022-12-22T09:38:17.727Z,928.3
2022-12-22T09:43:31.005Z,928.5
2022-12-22T09:48:40.934Z,928.2
2022-12-22T09:53:51.786Z,928.3
2022-12-22T09:59:04.333Z,928.1
2022-12-22T10:20:22.373Z,928.4
2022-12-22T10:26:32.390Z,928
2022-12-22T10:30:44.157Z,928.3
2022-12-22T10:35:57.005Z,928.2
2022-12-22T10:41:05.813Z,928.4
2022-12-22T10:46:17.241Z,928.7
2022-12-22T10:51:27.795Z,928.9
2022-12-22T10:56:38.548Z,928.7
2022-12-22T11:01:51.086Z,928.8
2022-12-22T11:07:00.975Z,928.6
2022-12-22T11:17:34.344Z,928.3
2022-12-22T11:22:46.879Z,928.5
2022-12-22T11:27:58.335Z,928.7
2022-12-22T11:33:10.027Z,928.6
2022-12-22T11:38:20.489Z,928.4
2022-12-22T11:48:58.026Z,928.4
2022-12-22T11:54:12.632Z,928.6
2022-12-22T11:59:20.511Z,928.4
2022-12-22T12:04:32.279Z,928.4
2022-12-22T12:15:04.932Z,928.4
2022-12-22T12:20:15.683Z,928.3
2022-12-22T12:25:27.034Z,928.1
2022-12-22T12:30:40.565Z,928.4
2022-12-22T12:35:58.682Z,928.4
2022-12-22T12:46:28.934Z,929
2022-12-22T12:51:40.037Z,929.2
2022-12-22T12:56:52.229Z,929
2022-12-22T13:02:03.754Z,928.9
2022-12-22T13:12:35.878Z,928.8
2022-12-22T13:23:10.662Z,929
2022-12-22T13:39:05.792Z,928.7
2022-12-22T13:50:10.946Z,929.1
2022-12-22T14:11:02.592Z,929.2
2022-12-22T14:16:07.507Z,929
2022-12-22T14:21:18.812Z,929.5
2022-12-22T14:26:28.263Z,929.6
2022-12-22T14:31:39.974Z,930.3
2022-12-22T14:36:54.647Z,930.9
2022-12-22T14:42:03.265Z,930.3
2022-12-22T14:47:20.057Z,930.3
2022-12-22T14:52:31.755Z,930
2022-12-22T15:03:11.073Z,930
2022-12-22T15:08:27.083Z,930
2022-12-22T15:13:38.309Z,930
2022-12-22T15:18:50.333Z,929.9
2022-12-22T15:34:52.223Z,929.9
2022-12-22T15:40:01.067Z,929.8
2022-12-22T15:45:13.878Z,929.6
2022-12-22T15:50:39.596Z,929.6
2022-12-22T16:06:24.677Z,929.3
2022-12-22T16:11:40.666Z,929.3
2022-12-22T16:16:57.816Z,929.4
2022-12-22T16:22:05.168Z,929.6
2022-12-22T16:27:17.551Z,929.4
2022-12-22T16:32:29.351Z,929.5
2022-12-22T16:37:45.121Z,929.5
2022-12-22T16:53:40.526Z,929.6
2022-12-22T17:09:34.395Z,929.4
2022-12-22T17:25:34.052Z,929.4
2022-12-22T17:30:43.877Z,929.3
2022-12-22T17:46:36.326Z,929.1
2022-12-22T17:51:48.833Z,928.9
2022-12-22T18:13:06.419Z,928.8
2022-12-22T18:23:38.391Z,928.7
2022-12-22T18:44:56.525Z,929
2022-12-22T18:50:06.993Z,928.8
2022-12-22T18:55:19.970Z,928.9
2022-12-22T19:05:50.723Z,929.3
2022-12-22T19:11:01.848Z,929.8
2022-12-22T19:16:12.756Z,930.3
2022-12-22T19:21:30.261Z,930.3
2022-12-22T19:26:45.668Z,930.3
2022-12-22T19:31:59.156Z,929.8
2022-12-22T19:37:09.944Z,929.3
2022-12-22T19:47:48.904Z,929.3
2022-12-22T19:53:02.474Z,929.3
2022-12-22T19:58:13.842Z,929.5
2022-12-22T20:14:08.344Z,930.2
2022-12-22T20:19:21.513Z,930.2
2022-12-22T20:24:33.859Z,930.4
2022-12-22T20:29:44.967Z,930.9
2022-12-22T20:40:17.854Z,930
2022-12-22T20:45:29.653Z,930.2
2022-12-22T20:56:02.987Z,930.3
2022-12-22T21:01:16.217Z,930.3
2022-12-22T21:06:28.565Z,930.8
2022-12-22T21:11:40.167Z,931
2022-12-22T21:16:52.492Z,930.7
2022-12-22T21:22:02.075Z,931
2022-12-22T21:27:15.025Z,930.5
2022-12-22T21:32:26.418Z,930
2022-12-22T21:37:37.881Z,930.1
2022-12-22T21:42:49.862Z,930.3
2022-12-22T21:47:59.670Z,930.5
2022-12-22T21:53:23.128Z,930.7
2022-12-22T21:58:23.739Z,930.8
2022-12-22T22:08:56.826Z,930.6
2022-12-22T22:14:07.898Z,930.8
2022-12-22T22:19:26.093Z,930.8
2022-12-22T22:24:48.240Z,930.9
2022-12-22T22:30:02.182Z,931.1
2022-12-22T22:35:17.788Z,931.5
2022-12-22T22:40:28.456Z,932
2022-12-22T22:51:18.525Z,932
2022-12-22T23:02:33.926Z,931.7
2022-12-22T23:07:45.636Z,931.6
2022-12-22T23:12:58.546Z,931.5
2022-12-22T23:18:43.519Z,931.4
2022-12-22T23:23:59.068Z,931.4
2022-12-22T23:34:29.479Z,931.3
2022-12-22T23:39:42.573Z,931.3
2022-12-22T23:55:35.911Z,931.3
